createdAt,value
2023-05-12T00:01:20.934Z,99.90
2023-05-12T00:03:49.392Z,99.90
2023-05-12T00:06:18.235Z,99.90
2023-05-12T00:08:46.436Z,99.90
2023-05-12T00:11:14.721Z,99.90
2023-05-12T00:13:43.021Z,99.90
2023-05-12T00:16:11.388Z,99.90
2023-05-12T00:18:41.138Z,99.90
2023-05-12T00:21:09.649Z,99.90
2023-05-12T00:23:37.798Z,99.90
2023-05-12T00:26:06.154Z,99.90
2023-05-12T00:28:34.657Z,99.90
2023-05-12T00:31:03.738Z,99.90
2023-05-12T00:33:32.333Z,99.90
2023-05-12T00:36:03.600Z,99.90
2023-05-12T00:38:31.814Z,99.90
2023-05-12T00:40:59.978Z,99.90
2023-05-12T00:43:28.211Z,99.90
2023-05-12T00:45:56.593Z,99.90
2023-05-12T00:48:25.364Z,99.90
2023-05-12T00:50:53.628Z,99.90
2023-05-12T00:53:23.324Z,99.90
2023-05-12T00:55:51.616Z,99.90
2023-05-12T00:58:20.265Z,99.90
2023-05-12T01:00:48.656Z,99.90
2023-05-12T01:03:17.557Z,99.90
2023-05-12T01:05:50.771Z,99.90
2023-05-12T01:08:23.520Z,99.90
2023-05-12T01:10:52.277Z,99.90
2023-05-12T01:13:21.023Z,99.90
2023-05-12T01:15:52.666Z,99.90
2023-05-12T01:18:24.436Z,99.90
2023-05-12T01:20:54.782Z,99.90
2023-05-12T01:23:32.698Z,99.90
2023-05-12T01:26:06.027Z,99.90
2023-05-12T01:28:35.657Z,99.90
2023-05-12T01:31:04.871Z,99.90
2023-05-12T01:33:33.873Z,99.90
2023-05-12T01:36:02.506Z,99.90
2023-05-12T01:38:31.085Z,99.90
2023-05-12T01:40:59.652Z,99.90
2023-05-12T01:43:29.167Z,99.90
2023-05-12T01:45:57.423Z,99.90
2023-05-12T01:48:26.059Z,99.90
2023-05-12T01:50:55.571Z,99.90
2023-05-12T01:53:23.722Z,99.90
2023-05-12T01:55:52.059Z,99.90
2023-05-12T01:58:21.124Z,99.90
2023-05-12T02:00:51.514Z,99.90
2023-05-12T02:03:20.270Z,99.90
2023-05-12T02:05:48.554Z,99.90
2023-05-12T02:08:16.774Z,99.90
2023-05-12T02:10:45.014Z,99.90
2023-05-12T02:13:13.352Z,99.90
2023-05-12T02:15:41.925Z,99.90
2023-05-12T02:18:11.648Z,99.90
2023-05-12T02:20:40.845Z,99.90
2023-05-12T02:23:10.652Z,99.90
2023-05-12T02:25:38.892Z,99.90
2023-05-12T02:28:10.884Z,99.90
2023-05-12T02:30:40.427Z,99.90
2023-05-12T02:33:08.592Z,99.90
2023-05-12T02:35:38.287Z,99.90
2023-05-12T02:38:06.527Z,99.90
2023-05-12T02:40:34.864Z,99.90
2023-05-12T02:43:03.128Z,99.90
2023-05-12T02:45:31.742Z,99.90
2023-05-12T02:48:00.063Z,99.90
2023-05-12T02:50:28.272Z,99.90
2023-05-12T02:52:57.886Z,99.90
2023-05-12T02:55:26.044Z,99.90
2023-05-12T02:57:54.903Z,99.90
2023-05-12T03:00:23.325Z,99.90
2023-05-12T03:02:51.813Z,99.90
2023-05-12T03:05:20.124Z,99.90
2023-05-12T03:07:50.033Z,99.90
2023-05-12T03:10:20.232Z,99.90
2023-05-12T03:12:48.772Z,99.90
2023-05-12T03:15:17.087Z,99.90
2023-05-12T03:17:45.328Z,99.90
2023-05-12T03:20:13.764Z,99.90
2023-05-12T03:22:42.257Z,99.90
2023-05-12T03:25:11.457Z,99.90
2023-05-12T03:27:41.298Z,99.90
2023-05-12T03:30:11.609Z,99.90
2023-05-12T03:32:40.272Z,99.90
2023-05-12T03:35:11.204Z,99.90
2023-05-12T03:37:39.589Z,99.90
2023-05-12T03:40:10.137Z,99.90
2023-05-12T03:42:38.306Z,99.90
2023-05-12T03:45:09.654Z,99.90
2023-05-12T03:47:40.811Z,99.90
2023-05-12T03:50:10.490Z,99.90
2023-05-12T03:52:41.312Z,99.90
2023-05-12T03:55:10.484Z,99.90
2023-05-12T03:57:38.856Z,99.90
2023-05-12T04:00:09.985Z,99.90
2023-05-12T04:02:41.475Z,99.90
2023-05-12T04:05:10.802Z,99.90
2023-05-12T04:07:39.404Z,99.90
2023-05-12T04:10:09.000Z,99.90
2023-05-12T04:12:37.281Z,99.90
2023-05-12T04:15:06.891Z,99.90
2023-05-12T04:17:36.477Z,99.90
2023-05-12T04:20:05.170Z,99.90
2023-05-12T04:22:33.329Z,99.90
2023-05-12T04:25:01.556Z,99.90
2023-05-12T04:27:29.795Z,99.90
2023-05-12T04:29:58.157Z,99.90
2023-05-12T04:32:26.628Z,99.90
2023-05-12T04:34:56.735Z,99.90
2023-05-12T04:37:25.176Z,99.90
2023-05-12T04:39:53.601Z,99.90
2023-05-12T04:42:22.045Z,99.90
2023-05-12T04:44:50.272Z,99.90
2023-05-12T04:47:18.701Z,99.90
2023-05-12T04:49:47.395Z,99.90
2023-05-12T04:52:17.616Z,99.90
2023-05-12T04:54:46.092Z,99.90
2023-05-12T04:57:14.280Z,99.90
2023-05-12T04:59:43.253Z,99.90
2023-05-12T05:02:11.816Z,99.90
2023-05-12T05:04:40.316Z,99.90
2023-05-12T05:07:08.665Z,99.90
2023-05-12T05:09:38.690Z,99.90
2023-05-12T05:12:07.632Z,99.90
2023-05-12T05:14:36.090Z,99.90
2023-05-12T05:17:04.364Z,99.90
2023-05-12T05:19:44.512Z,99.90
2023-05-12T05:22:16.092Z,99.90
2023-05-12T05:24:47.323Z,99.90
2023-05-12T05:27:15.653Z,99.90
2023-05-12T05:29:43.781Z,99.90
2023-05-12T05:32:12.116Z,99.90
2023-05-12T05:34:40.716Z,99.90
2023-05-12T05:37:09.240Z,99.90
2023-05-12T05:39:38.337Z,99.90
2023-05-12T05:42:08.411Z,99.90
2023-05-12T05:44:37.081Z,99.90
2023-05-12T05:47:07.122Z,99.90
2023-05-12T05:49:36.175Z,99.90
2023-05-12T05:52:05.104Z,99.90
2023-05-12T05:54:33.582Z,99.90
2023-05-12T05:57:03.115Z,99.90
2023-05-12T05:59:33.394Z,99.90
2023-05-12T06:02:01.750Z,99.90
2023-05-12T06:04:30.073Z,99.90
2023-05-12T06:06:59.473Z,99.90
2023-05-12T06:09:28.929Z,99.90
2023-05-12T06:11:57.163Z,99.90
2023-05-12T06:14:25.376Z,99.90
2023-05-12T06:16:55.766Z,99.90
2023-05-12T06:19:25.573Z,99.90
2023-05-12T06:21:53.919Z,99.90
2023-05-12T06:24:22.189Z,99.90
2023-05-12T06:26:50.383Z,99.90
2023-05-12T06:29:18.766Z,99.90
2023-05-12T06:31:47.014Z,96.70
2023-05-12T06:34:18.601Z,93.80
2023-05-12T06:36:46.800Z,83.80
2023-05-12T06:39:15.138Z,83.10
2023-05-12T06:41:44.840Z,72.50
2023-05-12T06:44:21.501Z,63.90
2023-05-12T06:46:53.353Z,65.10
2023-05-12T06:49:23.260Z,60.30
2023-05-12T06:51:51.563Z,58.50
2023-05-12T06:54:19.812Z,51.50
2023-05-12T06:56:47.952Z,50.30
2023-05-12T06:59:16.151Z,50.60
2023-05-12T07:01:44.394Z,48.90
2023-05-12T07:04:12.777Z,44.80
2023-05-12T07:06:42.443Z,51.00
2023-05-12T07:09:10.797Z,44.60
2023-05-12T07:11:38.992Z,35.90
2023-05-12T07:14:07.351Z,37.70
2023-05-12T07:16:35.595Z,38.10
2023-05-12T07:19:05.964Z,38.60
2023-05-12T07:21:34.177Z,38.30
2023-05-12T07:24:04.035Z,43.60
2023-05-12T07:26:32.406Z,41.30
2023-05-12T07:29:01.391Z,40.50
2023-05-12T07:31:30.062Z,40.80
2023-05-12T07:33:58.294Z,31.90
2023-05-12T07:36:26.843Z,36.90
2023-05-12T07:38:55.125Z,35.80
2023-05-12T07:41:25.242Z,29.00
2023-05-12T07:43:53.538Z,47.10
2023-05-12T07:46:21.991Z,25.30
2023-05-12T07:48:50.753Z,29.60
2023-05-12T07:51:18.931Z,26.50
2023-05-12T07:53:47.192Z,26.70
2023-05-12T07:56:15.529Z,29.90
2023-05-12T07:58:47.203Z,23.40
2023-05-12T08:01:15.760Z,23.90
2023-05-12T08:03:44.087Z,22.40
2023-05-12T08:06:12.396Z,25.20
2023-05-12T08:08:40.585Z,25.10
2023-05-12T08:11:08.749Z,23.80
2023-05-12T08:13:37.865Z,25.20
2023-05-12T08:16:07.490Z,21.20
2023-05-12T08:18:35.732Z,16.60
2023-05-12T08:21:04.091Z,18.60
2023-05-12T08:23:32.284Z,20.50
2023-05-12T08:26:00.520Z,18.60
2023-05-12T08:28:28.828Z,17.50
2023-05-12T08:30:57.153Z,18.30
2023-05-12T08:33:26.765Z,15.00
2023-05-12T08:35:55.098Z,13.60
2023-05-12T08:38:23.396Z,15.90
2023-05-12T08:41:08.096Z,16.30
2023-05-12T08:43:45.182Z,13.80
2023-05-12T08:46:13.966Z,17.20
2023-05-12T08:48:46.347Z,28.80
2023-05-12T08:51:15.610Z,14.90
2023-05-12T08:53:44.132Z,15.00
2023-05-12T08:58:48.383Z,14.20
2023-05-12T09:01:18.120Z,15.20
2023-05-12T09:03:48.230Z,13.20
2023-05-12T09:06:17.245Z,13.70
2023-05-12T09:08:46.278Z,11.40
2023-05-12T09:11:15.456Z,11.90
2023-05-12T09:13:51.589Z,10.80
2023-05-12T09:16:24.896Z,10.90
2023-05-12T09:18:56.687Z,16.80
2023-05-12T09:21:26.455Z,9.40
2023-05-12T09:23:58.820Z,10.50
2023-05-12T09:26:28.707Z,9.20
2023-05-12T09:29:06.401Z,8.20
2023-05-12T09:31:35.002Z,7.90
2023-05-12T09:34:09.444Z,9.30
2023-05-12T09:36:37.875Z,8.30
2023-05-12T09:39:07.527Z,8.10
2023-05-12T09:41:37.316Z,9.80
2023-05-12T09:44:06.557Z,9.00
2023-05-12T09:46:34.917Z,6.80
2023-05-12T09:49:04.532Z,8.90
2023-05-12T09:51:32.750Z,6.10
2023-05-12T09:54:01.206Z,8.00
2023-05-12T09:56:31.582Z,11.00
2023-05-12T09:59:00.099Z,7.90
2023-05-12T10:01:28.940Z,7.80
2023-05-12T10:03:58.328Z,8.20
2023-05-12T10:06:29.362Z,5.80
2023-05-12T10:09:05.766Z,6.60
2023-05-12T10:11:34.403Z,4.70
2023-05-12T10:14:02.696Z,4.50
2023-05-12T10:16:31.475Z,5.10
2023-05-12T10:19:00.918Z,3.80
2023-05-12T10:21:30.679Z,7.10
2023-05-12T10:24:00.035Z,7.00
2023-05-12T10:26:28.465Z,5.90
2023-05-12T10:28:56.970Z,5.00
2023-05-12T10:31:26.012Z,5.20
2023-05-12T10:33:58.864Z,4.30
2023-05-12T10:36:27.718Z,4.90
2023-05-12T10:38:57.777Z,5.20
2023-05-12T10:41:32.831Z,5.20
2023-05-12T10:44:01.449Z,5.60
2023-05-12T10:46:30.594Z,4.70
2023-05-12T10:49:03.439Z,4.50
2023-05-12T10:51:33.246Z,4.00
2023-05-12T10:54:05.098Z,3.40
2023-05-12T10:56:45.302Z,5.60
2023-05-12T10:59:17.690Z,5.80
2023-05-12T11:01:59.215Z,5.70
2023-05-12T11:04:43.119Z,6.20
2023-05-12T11:07:14.742Z,6.50
2023-05-12T11:12:18.711Z,5.40
2023-05-12T11:14:47.934Z,6.90
2023-05-12T11:17:16.745Z,6.60
2023-05-12T11:19:48.236Z,5.80
2023-05-12T11:22:19.235Z,3.80
2023-05-12T11:24:49.804Z,4.30
2023-05-12T11:27:19.455Z,4.20
2023-05-12T11:29:57.775Z,5.20
2023-05-12T11:32:26.240Z,4.90
2023-05-12T11:34:54.548Z,4.10
2023-05-12T11:37:23.333Z,4.40
2023-05-12T11:39:53.861Z,5.80
2023-05-12T11:42:25.129Z,4.60
2023-05-12T11:44:55.613Z,3.90
2023-05-12T11:47:23.914Z,3.70
2023-05-12T11:49:54.738Z,5.00
2023-05-12T11:52:24.457Z,5.20
2023-05-12T11:55:00.204Z,4.60
2023-05-12T11:57:29.357Z,3.60
2023-05-12T11:59:59.074Z,1.80
2023-05-12T12:02:27.541Z,3.10
2023-05-12T12:04:56.296Z,4.70
2023-05-12T12:07:32.179Z,4.40
2023-05-12T12:10:13.119Z,5.20
2023-05-12T12:12:41.458Z,3.90
2023-05-12T12:15:10.694Z,1.40
2023-05-12T12:17:40.092Z,1.00
2023-05-12T12:20:10.058Z,1.40
2023-05-12T12:22:38.347Z,1.00
2023-05-12T12:25:09.440Z,3.10
2023-05-12T12:27:37.672Z,1.90
2023-05-12T12:30:06.567Z,1.80
2023-05-12T12:32:34.868Z,1.00
2023-05-12T12:35:04.426Z,1.00
2023-05-12T12:37:32.667Z,1.00
2023-05-12T12:40:07.930Z,1.00
2023-05-12T12:42:39.676Z,1.00
2023-05-12T12:45:09.960Z,2.60
2023-05-12T12:47:39.223Z,3.20
2023-05-12T12:50:09.678Z,1.30
2023-05-12T12:52:38.651Z,2.00
2023-05-12T12:55:08.417Z,14.20
2023-05-12T12:57:38.115Z,1.00
2023-05-12T13:00:08.676Z,1.00
2023-05-12T13:02:37.278Z,1.20
2023-05-12T13:05:07.236Z,1.00
2023-05-12T13:07:35.688Z,1.60
2023-05-12T13:10:04.084Z,1.00
2023-05-12T13:12:32.617Z,2.30
2023-05-12T13:15:03.134Z,1.30
2023-05-12T13:17:31.403Z,1.00
2023-05-12T13:19:59.713Z,1.00
2023-05-12T13:22:29.043Z,1.00
2023-05-12T13:24:57.533Z,1.00
2023-05-12T13:27:25.937Z,1.00
2023-05-12T13:29:54.180Z,1.00
2023-05-12T13:32:23.846Z,1.00
2023-05-12T13:34:52.182Z,1.00
2023-05-12T13:37:20.356Z,1.00
2023-05-12T13:39:48.713Z,1.00
2023-05-12T13:42:17.202Z,1.00
2023-05-12T13:44:45.594Z,1.00
2023-05-12T13:47:14.817Z,1.00
2023-05-12T13:49:44.511Z,1.00
2023-05-12T13:52:12.768Z,1.00
2023-05-12T13:54:40.963Z,1.00
2023-05-12T13:57:09.220Z,1.00
2023-05-12T13:59:37.495Z,1.00
2023-05-12T14:02:09.575Z,1.00
2023-05-12T14:04:38.178Z,1.00
2023-05-12T14:07:08.734Z,1.00
2023-05-12T14:09:37.141Z,1.00
2023-05-12T14:12:05.890Z,1.00
2023-05-12T14:14:34.120Z,1.00
2023-05-12T14:17:02.401Z,1.00
2023-05-12T14:19:30.747Z,1.00
2023-05-12T14:21:59.042Z,1.00
2023-05-12T14:24:28.932Z,1.00
2023-05-12T14:26:57.400Z,1.00
2023-05-12T14:29:25.717Z,1.00
2023-05-12T14:31:53.995Z,1.00
2023-05-12T14:34:23.511Z,1.00
2023-05-12T14:36:51.684Z,1.00
2023-05-12T14:39:19.864Z,1.00
2023-05-12T14:41:49.486Z,1.00
2023-05-12T14:44:17.814Z,1.00
2023-05-12T14:46:46.406Z,1.00
2023-05-12T14:49:14.705Z,1.00
2023-05-12T14:51:43.498Z,1.00
2023-05-12T14:54:24.373Z,1.00
2023-05-12T14:56:55.187Z,1.00
2023-05-12T14:59:23.709Z,1.00
2023-05-12T15:01:52.022Z,1.00
2023-05-12T15:04:20.258Z,1.00
2023-05-12T15:06:48.533Z,1.00
2023-05-12T15:09:17.366Z,1.00
2023-05-12T15:11:45.671Z,1.00
2023-05-12T15:14:15.196Z,1.00
2023-05-12T15:16:43.561Z,1.00
2023-05-12T15:19:12.138Z,1.00
2023-05-12T15:21:40.353Z,1.00
2023-05-12T15:24:08.774Z,1.00
2023-05-12T15:26:40.270Z,1.00
2023-05-12T15:29:08.864Z,1.00
2023-05-12T15:31:38.601Z,1.00
2023-05-12T15:34:07.272Z,1.00
2023-05-12T15:36:35.513Z,1.00
2023-05-12T15:39:04.591Z,1.00
2023-05-12T15:41:32.973Z,1.00
2023-05-12T15:44:01.289Z,1.00
2023-05-12T15:46:29.665Z,1.00
2023-05-12T15:48:59.354Z,1.00
2023-05-12T15:51:28.455Z,1.00
2023-05-12T15:53:56.649Z,1.00
2023-05-12T15:56:24.808Z,1.00
2023-05-12T15:58:53.074Z,1.00
2023-05-12T16:01:21.255Z,1.00
2023-05-12T16:03:50.706Z,1.00
2023-05-12T16:06:20.453Z,1.00
2023-05-12T16:08:48.786Z,1.00
2023-05-12T16:11:16.986Z,1.00
2023-05-12T16:13:45.261Z,1.00
2023-05-12T16:16:13.626Z,1.00
2023-05-12T16:18:43.032Z,1.00
2023-05-12T16:21:11.868Z,1.00
2023-05-12T16:23:41.614Z,1.00
2023-05-12T16:26:09.928Z,1.00
2023-05-12T16:28:38.078Z,1.00
2023-05-12T16:31:06.536Z,1.00
2023-05-12T16:33:34.796Z,1.00
2023-05-12T16:36:03.283Z,1.00
2023-05-12T16:38:32.537Z,1.00
2023-05-12T16:41:03.396Z,1.00
2023-05-12T16:43:31.800Z,1.00
2023-05-12T16:46:01.461Z,1.00
2023-05-12T16:48:34.461Z,1.00
2023-05-12T16:51:04.049Z,1.00
2023-05-12T16:53:32.381Z,1.00
2023-05-12T16:56:02.307Z,1.00
2023-05-12T16:58:32.248Z,1.00
2023-05-12T17:01:00.872Z,1.00
2023-05-12T17:03:29.651Z,1.00
2023-05-12T17:05:57.945Z,1.00
2023-05-12T17:08:26.324Z,1.00
2023-05-12T17:10:54.640Z,1.00
2023-05-12T17:13:24.410Z,1.00
2023-05-12T17:15:52.755Z,1.00
2023-05-12T17:18:21.018Z,1.00
2023-05-12T17:20:49.249Z,1.00
2023-05-12T17:23:17.743Z,1.00
2023-05-12T17:25:46.125Z,1.00
2023-05-12T17:28:14.349Z,1.00
2023-05-12T17:30:44.085Z,1.00
2023-05-12T17:33:13.033Z,1.00
2023-05-12T17:35:41.620Z,1.00
2023-05-12T17:38:09.891Z,1.00
2023-05-12T17:40:38.156Z,1.00
2023-05-12T17:43:06.641Z,1.00
2023-05-12T17:45:35.053Z,1.00
2023-05-12T17:48:06.230Z,1.00
2023-05-12T17:50:34.503Z,1.00
2023-05-12T17:53:02.745Z,1.00
2023-05-12T17:55:31.344Z,1.00
2023-05-12T17:57:59.642Z,1.00
2023-05-12T18:00:28.304Z,1.00
2023-05-12T18:02:56.605Z,1.00
2023-05-12T18:05:26.367Z,1.00
2023-05-12T18:07:54.606Z,1.00
2023-05-12T18:10:22.932Z,1.00
2023-05-12T18:12:51.503Z,1.00
2023-05-12T18:15:22.472Z,1.00
2023-05-12T18:17:50.892Z,1.00
2023-05-12T18:20:19.130Z,1.00
2023-05-12T18:22:50.777Z,1.00
2023-05-12T18:25:19.528Z,5.50
2023-05-12T18:27:48.833Z,1.00
2023-05-12T18:30:17.372Z,1.00
2023-05-12T18:32:45.750Z,1.00
2023-05-12T18:35:14.011Z,1.00
2023-05-12T18:37:42.233Z,1.00
2023-05-12T18:40:12.520Z,1.00
2023-05-12T18:42:40.749Z,1.00
2023-05-12T18:45:10.154Z,1.00
2023-05-12T18:47:38.857Z,1.00
2023-05-12T18:50:08.059Z,1.00
2023-05-12T18:52:36.362Z,1.00
2023-05-12T18:55:05.346Z,1.00
2023-05-12T18:57:34.947Z,1.00
2023-05-12T19:00:04.715Z,1.00
2023-05-12T19:02:32.985Z,1.00
2023-05-12T19:05:01.968Z,1.00
2023-05-12T19:07:30.276Z,1.00
2023-05-12T19:09:58.480Z,1.00
2023-05-12T19:12:26.878Z,1.00
2023-05-12T19:14:56.520Z,1.00
2023-05-12T19:17:24.810Z,1.00
2023-05-12T19:19:53.118Z,1.00
2023-05-12T19:22:23.566Z,1.00
2023-05-12T19:24:52.182Z,3.00
2023-05-12T19:27:20.685Z,2.30
2023-05-12T19:29:48.892Z,5.10
2023-05-12T19:32:18.492Z,8.80
2023-05-12T19:34:46.803Z,12.70
2023-05-12T19:37:15.044Z,12.30
2023-05-12T19:39:43.260Z,15.20
2023-05-12T19:42:11.557Z,16.40
2023-05-12T19:44:39.785Z,15.90
2023-05-12T19:47:08.794Z,18.10
2023-05-12T19:49:38.676Z,19.50
2023-05-12T19:52:07.705Z,22.90
2023-05-12T19:54:39.212Z,29.80
2023-05-12T19:57:07.898Z,36.50
2023-05-12T19:59:36.106Z,43.30
2023-05-12T20:02:04.344Z,44.10
2023-05-12T20:04:32.981Z,48.60
2023-05-12T20:07:02.716Z,50.30
2023-05-12T20:09:30.957Z,54.30
2023-05-12T20:11:59.336Z,57.20
2023-05-12T20:14:27.725Z,86.60
2023-05-12T20:16:57.044Z,72.30
2023-05-12T20:19:25.469Z,74.40
2023-05-12T20:21:53.725Z,79.80
2023-05-12T20:24:23.327Z,86.80
2023-05-12T20:26:52.456Z,90.60
2023-05-12T20:29:21.618Z,93.90
2023-05-12T20:31:50.268Z,96.50
2023-05-12T20:34:19.327Z,99.80
2023-05-12T20:36:48.722Z,99.90
2023-05-12T20:39:21.079Z,99.90
2023-05-12T20:41:56.299Z,99.90
2023-05-12T20:44:26.454Z,99.90
2023-05-12T20:46:55.513Z,99.90
2023-05-12T20:49:23.985Z,99.90
2023-05-12T20:51:52.203Z,99.90
2023-05-12T20:54:27.778Z,99.90
2023-05-12T20:56:57.856Z,99.90
2023-05-12T20:59:26.216Z,99.90
2023-05-12T21:01:54.441Z,99.90
2023-05-12T21:04:22.776Z,99.90
2023-05-12T21:06:53.344Z,99.90
2023-05-12T21:09:22.118Z,99.90
2023-05-12T21:11:50.348Z,99.90
2023-05-12T21:14:19.934Z,99.90
2023-05-12T21:16:48.247Z,99.90
2023-05-12T21:19:16.430Z,99.90
2023-05-12T21:21:44.607Z,99.90
2023-05-12T21:24:12.849Z,99.90
2023-05-12T21:26:41.036Z,99.90
2023-05-12T21:29:09.418Z,1.00
2023-05-12T21:31:40.813Z,1.00
2023-05-12T21:34:09.475Z,1.00
2023-05-12T21:36:38.125Z,1.00
2023-05-12T21:39:06.398Z,1.00
2023-05-12T21:41:34.628Z,1.00
2023-05-12T21:44:03.344Z,1.00
2023-05-12T21:46:31.574Z,1.00
2023-05-12T21:49:01.415Z,1.00
2023-05-12T21:51:29.971Z,1.00
2023-05-12T21:53:58.177Z,1.00
2023-05-12T21:56:26.887Z,1.00
2023-05-12T21:58:55.865Z,1.00
2023-05-12T22:01:24.289Z,6.80
2023-05-12T22:03:52.796Z,54.30
2023-05-12T22:06:22.534Z,99.90
2023-05-12T22:08:50.754Z,99.90
2023-05-12T22:11:19.129Z,99.90
2023-05-12T22:13:47.335Z,99.90
2023-05-12T22:16:15.610Z,99.90
2023-05-12T22:18:44.519Z,99.90
2023-05-12T22:21:13.153Z,99.90
2023-05-12T22:23:42.981Z,99.90
2023-05-12T22:26:11.245Z,99.90
2023-05-12T22:28:39.424Z,99.90
2023-05-12T22:31:07.742Z,1.00
2023-05-12T22:33:36.111Z,1.00
2023-05-12T22:36:04.614Z,1.00
2023-05-12T22:38:32.924Z,1.00
2023-05-12T22:41:03.777Z,1.00
2023-05-12T22:43:31.933Z,1.00
2023-05-12T22:46:00.192Z,1.00
2023-05-12T22:48:28.640Z,1.00
2023-05-12T22:50:57.700Z,1.00
2023-05-12T22:53:25.911Z,1.00
2023-05-12T22:55:54.102Z,38.30
2023-05-12T22:58:23.747Z,99.90
2023-05-12T23:00:52.020Z,99.90
2023-05-12T23:03:20.302Z,99.90
2023-05-12T23:05:48.609Z,99.90
2023-05-12T23:08:16.770Z,99.90
2023-05-12T23:10:45.016Z,99.90
2023-05-12T23:13:13.206Z,99.90
2023-05-12T23:15:42.849Z,99.90
2023-05-12T23:18:11.129Z,99.90
2023-05-12T23:20:39.339Z,99.90
2023-05-12T23:23:07.578Z,99.90
2023-05-12T23:25:36.913Z,99.90
2023-05-12T23:28:06.080Z,99.90
2023-05-12T23:30:34.248Z,99.90
2023-05-12T23:33:03.839Z,99.90
2023-05-12T23:35:32.053Z,99.90
2023-05-12T23:38:00.227Z,1.00
2023-05-12T23:40:28.456Z,1.00
2023-05-12T23:42:56.675Z,1.00
2023-05-12T23:45:24.874Z,1.00
2023-05-12T23:47:53.113Z,1.00
2023-05-12T23:50:23.233Z,1.00
2023-05-12T23:52:53.255Z,1.00
2023-05-12T23:55:21.711Z,1.00
2023-05-12T23:57:50.293Z,1.00
